sensor_id;sensor_type;location;lat;lon;timestamp;pressure;altitude;pressure_sealevel;temperature;humidity
77013;BME280;67260;53.130;17.982;2023-09-19T00:01:02;100237.05;;;20.73;62.76
77013;BME280;67260;53.130;17.982;2023-09-19T00:03:38;100236.30;;;20.73;62.88
77013;BME280;67260;53.130;17.982;2023-09-19T00:06:10;100231.04;;;20.72;62.97
77013;BME280;67260;53.130;17.982;2023-09-19T00:08:37;100230.71;;;20.70;62.95
77013;BME280;67260;53.130;17.982;2023-09-19T00:11:04;100239.13;;;20.70;63.12
77013;BME280;67260;53.130;17.982;2023-09-19T00:13:33;100242.09;;;20.71;63.09
77013;BME280;67260;53.130;17.982;2023-09-19T00:16:00;100244.92;;;20.69;63.16
77013;BME280;67260;53.130;17.982;2023-09-19T00:18:27;100251.98;;;20.70;63.37
77013;BME280;67260;53.130;17.982;2023-09-19T00:20:58;100255.79;;;20.68;63.49
77013;BME280;67260;53.130;17.982;2023-09-19T00:23:32;100257.05;;;20.66;63.68
77013;BME280;67260;53.130;17.982;2023-09-19T00:26:01;100260.04;;;20.64;64.30
77013;BME280;67260;53.130;17.982;2023-09-19T00:28:28;100260.62;;;20.64;64.16
77013;BME280;67260;53.130;17.982;2023-09-19T00:30:57;100263.09;;;20.67;64.55
77013;BME280;67260;53.130;17.982;2023-09-19T00:33:28;100261.28;;;20.70;64.60
77013;BME280;67260;53.130;17.982;2023-09-19T00:36:01;100262.73;;;20.70;64.83
77013;BME280;67260;53.130;17.982;2023-09-19T00:38:32;100261.32;;;20.71;64.74
77013;BME280;67260;53.130;17.982;2023-09-19T00:41:00;100260.18;;;20.72;64.93
77013;BME280;67260;53.130;17.982;2023-09-19T00:43:27;100255.91;;;20.71;64.84
77013;BME280;67260;53.130;17.982;2023-09-19T00:45:55;100257.11;;;20.71;65.19
77013;BME280;67260;53.130;17.982;2023-09-19T00:48:29;100255.02;;;20.68;65.30
77013;BME280;67260;53.130;17.982;2023-09-19T00:51:05;100253.65;;;20.65;65.37
77013;BME280;67260;53.130;17.982;2023-09-19T00:53:32;100251.58;;;20.62;65.48
77013;BME280;67260;53.130;17.982;2023-09-19T00:56:00;100244.86;;;20.59;65.44
77013;BME280;67260;53.130;17.982;2023-09-19T00:58:29;100236.46;;;20.57;65.39
77013;BME280;67260;53.130;17.982;2023-09-19T01:01:01;100233.63;;;20.53;65.81
77013;BME280;67260;53.130;17.982;2023-09-19T01:03:29;100238.04;;;20.49;65.84
77013;BME280;67260;53.130;17.982;2023-09-19T01:05:57;100240.70;;;20.46;66.01
77013;BME280;67260;53.130;17.982;2023-09-19T01:08:23;100240.46;;;20.44;65.99
77013;BME280;67260;53.130;17.982;2023-09-19T01:11:00;100241.61;;;20.43;66.21
77013;BME280;67260;53.130;17.982;2023-09-19T01:13:35;100236.44;;;20.40;66.27
77013;BME280;67260;53.130;17.982;2023-09-19T01:16:29;100234.08;;;20.39;66.34
77013;BME280;67260;53.130;17.982;2023-09-19T01:22:16;100232.89;;;20.36;66.56
77013;BME280;67260;53.130;17.982;2023-09-19T01:28:06;100217.88;;;20.32;66.83
77013;BME280;67260;53.130;17.982;2023-09-19T01:30:42;100212.69;;;20.32;67.13
77013;BME280;67260;53.130;17.982;2023-09-19T01:33:10;100207.17;;;20.28;67.11
77013;BME280;67260;53.130;17.982;2023-09-19T01:35:41;100191.77;;;20.25;67.35
77013;BME280;67260;53.130;17.982;2023-09-19T01:38:07;100178.52;;;20.22;67.40
77013;BME280;67260;53.130;17.982;2023-09-19T01:40:41;100177.05;;;20.18;67.36
77013;BME280;67260;53.130;17.982;2023-09-19T01:43:33;100179.92;;;20.16;67.59
77013;BME280;67260;53.130;17.982;2023-09-19T01:46:12;100189.40;;;20.16;67.92
77013;BME280;67260;53.130;17.982;2023-09-19T01:48:49;100201.92;;;20.10;68.09
77013;BME280;67260;53.130;17.982;2023-09-19T01:51:33;100216.48;;;20.02;68.44
77013;BME280;67260;53.130;17.982;2023-09-19T01:54:03;100212.38;;;19.97;68.72
77013;BME280;67260;53.130;17.982;2023-09-19T01:56:39;100202.36;;;19.96;69.00
77013;BME280;67260;53.130;17.982;2023-09-19T01:59:13;100200.69;;;19.96;69.07
77013;BME280;67260;53.130;17.982;2023-09-19T02:01:41;100205.98;;;19.95;69.27
77013;BME280;67260;53.130;17.982;2023-09-19T02:04:11;100207.77;;;19.93;69.46
77013;BME280;67260;53.130;17.982;2023-09-19T02:06:41;100209.70;;;19.87;69.58
77013;BME280;67260;53.130;17.982;2023-09-19T02:09:08;100220.73;;;19.83;69.93
77013;BME280;67260;53.130;17.982;2023-09-19T02:11:35;100219.67;;;19.79;70.44
77013;BME280;67260;53.130;17.982;2023-09-19T02:14:04;100216.56;;;19.74;70.36
77013;BME280;67260;53.130;17.982;2023-09-19T02:16:35;100215.94;;;19.70;70.86
77013;BME280;67260;53.130;17.982;2023-09-19T02:19:01;100220.45;;;19.62;71.08
77013;BME280;67260;53.130;17.982;2023-09-19T02:21:32;100222.21;;;19.55;71.65
77013;BME280;67260;53.130;17.982;2023-09-19T02:23:59;100220.41;;;19.50;72.25
77013;BME280;67260;53.130;17.982;2023-09-19T02:26:25;100214.38;;;19.46;72.30
77013;BME280;67260;53.130;17.982;2023-09-19T02:28:53;100210.84;;;19.43;72.31
77013;BME280;67260;53.130;17.982;2023-09-19T02:31:21;100204.27;;;19.41;72.87
77013;BME280;67260;53.130;17.982;2023-09-19T02:33:48;100203.59;;;19.35;73.15
77013;BME280;67260;53.130;17.982;2023-09-19T02:36:15;100209.61;;;19.29;73.24
77013;BME280;67260;53.130;17.982;2023-09-19T02:38:43;100209.63;;;19.24;73.60
77013;BME280;67260;53.130;17.982;2023-09-19T02:41:10;100215.10;;;19.19;73.82
77013;BME280;67260;53.130;17.982;2023-09-19T02:43:38;100224.75;;;19.14;74.15
77013;BME280;67260;53.130;17.982;2023-09-19T02:46:05;100227.35;;;19.10;74.37
77013;BME280;67260;53.130;17.982;2023-09-19T02:48:31;100221.28;;;19.06;74.51
77013;BME280;67260;53.130;17.982;2023-09-19T02:51:00;100237.93;;;19.03;75.13
77013;BME280;67260;53.130;17.982;2023-09-19T02:53:27;100251.04;;;18.93;75.90
77013;BME280;67260;53.130;17.982;2023-09-19T02:55:54;100240.63;;;18.82;76.89
77013;BME280;67260;53.130;17.982;2023-09-19T02:58:21;100234.80;;;18.71;76.52
77013;BME280;67260;53.130;17.982;2023-09-19T03:00:49;100241.92;;;18.64;77.08
77013;BME280;67260;53.130;17.982;2023-09-19T03:03:16;100250.56;;;18.56;77.27
77013;BME280;67260;53.130;17.982;2023-09-19T03:05:43;100245.52;;;18.51;77.42
77013;BME280;67260;53.130;17.982;2023-09-19T03:08:14;100239.11;;;18.50;77.54
77013;BME280;67260;53.130;17.982;2023-09-19T03:10:47;100243.31;;;18.44;78.25
77013;BME280;67260;53.130;17.982;2023-09-19T03:13:14;100244.02;;;18.34;78.63
77013;BME280;67260;53.130;17.982;2023-09-19T03:15:42;100246.33;;;18.27;78.63
77013;BME280;67260;53.130;17.982;2023-09-19T03:18:12;100240.90;;;18.24;78.96
77013;BME280;67260;53.130;17.982;2023-09-19T03:20:40;100232.99;;;18.22;78.71
77013;BME280;67260;53.130;17.982;2023-09-19T03:23:07;100237.35;;;18.24;78.67
77013;BME280;67260;53.130;17.982;2023-09-19T03:25:35;100236.38;;;18.26;79.26
77013;BME280;67260;53.130;17.982;2023-09-19T03:28:03;100240.04;;;18.23;79.24
77013;BME280;67260;53.130;17.982;2023-09-19T03:30:33;100236.92;;;18.22;79.37
77013;BME280;67260;53.130;17.982;2023-09-19T03:33:04;100238.95;;;18.28;79.87
77013;BME280;67260;53.130;17.982;2023-09-19T03:35:31;100232.23;;;18.32;79.79
77013;BME280;67260;53.130;17.982;2023-09-19T03:37:58;100232.08;;;18.29;80.12
77013;BME280;67260;53.130;17.982;2023-09-19T03:40:25;100229.44;;;18.22;79.66
77013;BME280;67260;53.130;17.982;2023-09-19T03:42:52;100229.82;;;18.20;79.74
77013;BME280;67260;53.130;17.982;2023-09-19T03:45:19;100227.45;;;18.19;79.69
77013;BME280;67260;53.130;17.982;2023-09-19T03:47:51;100239.34;;;18.19;79.68
77013;BME280;67260;53.130;17.982;2023-09-19T03:50:20;100237.45;;;18.17;79.67
77013;BME280;67260;53.130;17.982;2023-09-19T03:52:47;100237.83;;;18.16;79.84
77013;BME280;67260;53.130;17.982;2023-09-19T03:55:14;100238.84;;;18.13;80.26
77013;BME280;67260;53.130;17.982;2023-09-19T03:57:41;100237.08;;;18.09;80.27
77013;BME280;67260;53.130;17.982;2023-09-19T04:00:15;100238.46;;;18.10;80.36
77013;BME280;67260;53.130;17.982;2023-09-19T04:02:45;100234.17;;;18.08;80.76
77013;BME280;67260;53.130;17.982;2023-09-19T04:05:12;100229.33;;;18.05;80.51
77013;BME280;67260;53.130;17.982;2023-09-19T04:07:39;100221.73;;;18.03;80.61
77013;BME280;67260;53.130;17.982;2023-09-19T04:10:24;100213.94;;;18.00;80.62
77013;BME280;67260;53.130;17.982;2023-09-19T04:12:55;100201.38;;;17.95;80.79
77013;BME280;67260;53.130;17.982;2023-09-19T04:15:23;100203.89;;;17.94;81.23
77013;BME280;67260;53.130;17.982;2023-09-19T04:17:53;100202.66;;;17.91;81.02
77013;BME280;67260;53.130;17.982;2023-09-19T04:20:20;100204.32;;;17.90;81.12
77013;BME280;67260;53.130;17.982;2023-09-19T04:22:49;100211.79;;;17.89;81.27
77013;BME280;67260;53.130;17.982;2023-09-19T04:25:17;100207.27;;;17.88;81.44
77013;BME280;67260;53.130;17.982;2023-09-19T04:27:45;100203.08;;;17.83;81.53
77013;BME280;67260;53.130;17.982;2023-09-19T04:30:12;100211.51;;;17.81;81.84
77013;BME280;67260;53.130;17.982;2023-09-19T04:32:41;100210.70;;;17.79;82.16
77013;BME280;67260;53.130;17.982;2023-09-19T04:35:08;100213.86;;;17.75;82.07
77013;BME280;67260;53.130;17.982;2023-09-19T04:37:37;100226.27;;;17.71;82.23
77013;BME280;67260;53.130;17.982;2023-09-19T04:40:09;100233.36;;;17.68;82.49
77013;BME280;67260;53.130;17.982;2023-09-19T04:42:41;100224.71;;;17.65;82.29
77013;BME280;67260;53.130;17.982;2023-09-19T04:45:08;100233.68;;;17.65;82.42
77013;BME280;67260;53.130;17.982;2023-09-19T04:47:38;100228.52;;;17.65;82.69
77013;BME280;67260;53.130;17.982;2023-09-19T04:50:08;100227.61;;;17.65;82.45
77013;BME280;67260;53.130;17.982;2023-09-19T04:52:43;100232.79;;;17.67;82.25
77013;BME280;67260;53.130;17.982;2023-09-19T04:55:18;100232.82;;;17.68;82.40
77013;BME280;67260;53.130;17.982;2023-09-19T04:57:50;100230.40;;;17.70;82.38
77013;BME280;67260;53.130;17.982;2023-09-19T05:00:19;100228.27;;;17.72;82.40
77013;BME280;67260;53.130;17.982;2023-09-19T05:02:46;100224.60;;;17.73;82.65
77013;BME280;67260;53.130;17.982;2023-09-19T05:05:15;100221.27;;;17.73;82.82
77013;BME280;67260;53.130;17.982;2023-09-19T05:07:45;100220.30;;;17.75;82.57
77013;BME280;67260;53.130;17.982;2023-09-19T05:10:13;100221.28;;;17.76;82.88
77013;BME280;67260;53.130;17.982;2023-09-19T05:12:40;100213.87;;;17.76;82.87
77013;BME280;67260;53.130;17.982;2023-09-19T05:15:08;100211.50;;;17.77;82.73
77013;BME280;67260;53.130;17.982;2023-09-19T05:17:35;100216.61;;;17.78;82.61
77013;BME280;67260;53.130;17.982;2023-09-19T05:20:02;100227.30;;;17.83;82.65
77013;BME280;67260;53.130;17.982;2023-09-19T05:22:32;100230.97;;;17.89;82.58
77013;BME280;67260;53.130;17.982;2023-09-19T05:24:59;100225.92;;;17.93;82.40
77013;BME280;67260;53.130;17.982;2023-09-19T05:27:26;100224.48;;;17.94;82.43
77013;BME280;67260;53.130;17.982;2023-09-19T05:29:53;100225.88;;;17.93;82.47
77013;BME280;67260;53.130;17.982;2023-09-19T05:32:19;100236.41;;;17.93;82.41
77013;BME280;67260;53.130;17.982;2023-09-19T05:34:46;100240.66;;;17.95;82.57
77013;BME280;67260;53.130;17.982;2023-09-19T05:37:19;100243.02;;;17.94;82.58
77013;BME280;67260;53.130;17.982;2023-09-19T05:39:46;100242.00;;;17.93;82.54
77013;BME280;67260;53.130;17.982;2023-09-19T05:42:13;100241.25;;;17.95;82.56
77013;BME280;67260;53.130;17.982;2023-09-19T05:44:40;100247.81;;;17.96;82.42
77013;BME280;67260;53.130;17.982;2023-09-19T05:47:07;100250.77;;;17.97;82.66
77013;BME280;67260;53.130;17.982;2023-09-19T05:49:35;100244.53;;;17.97;82.54
77013;BME280;67260;53.130;17.982;2023-09-19T05:52:05;100242.33;;;18.00;82.44
77013;BME280;67260;53.130;17.982;2023-09-19T05:54:33;100241.10;;;18.03;82.34
77013;BME280;67260;53.130;17.982;2023-09-19T05:57:00;100238.41;;;18.05;82.47
77013;BME280;67260;53.130;17.982;2023-09-19T05:59:28;100233.69;;;18.02;82.18
77013;BME280;67260;53.130;17.982;2023-09-19T06:01:59;100243.67;;;18.04;82.51
77013;BME280;67260;53.130;17.982;2023-09-19T06:04:27;100252.39;;;18.06;82.33
77013;BME280;67260;53.130;17.982;2023-09-19T06:06:54;100251.73;;;18.02;82.44
77013;BME280;67260;53.130;17.982;2023-09-19T06:09:21;100253.94;;;17.98;82.27
77013;BME280;67260;53.130;17.982;2023-09-19T06:11:49;100255.39;;;18.00;82.33
77013;BME280;67260;53.130;17.982;2023-09-19T06:14:16;100257.86;;;18.00;82.36
77013;BME280;67260;53.130;17.982;2023-09-19T06:16:44;100258.56;;;17.97;82.11
77013;BME280;67260;53.130;17.982;2023-09-19T06:19:11;100258.13;;;17.98;82.13
77013;BME280;67260;53.130;17.982;2023-09-19T06:21:38;100262.39;;;18.04;82.05
77013;BME280;67260;53.130;17.982;2023-09-19T06:24:05;100261.05;;;18.07;81.95
77013;BME280;67260;53.130;17.982;2023-09-19T06:26:32;100265.77;;;18.05;81.90
77013;BME280;67260;53.130;17.982;2023-09-19T06:28:59;100268.63;;;18.02;81.75
77013;BME280;67260;53.130;17.982;2023-09-19T06:31:26;100274.05;;;18.01;81.79
77013;BME280;67260;53.130;17.982;2023-09-19T06:33:52;100275.83;;;18.01;82.09
77013;BME280;67260;53.130;17.982;2023-09-19T06:36:19;100282.70;;;18.00;81.96
77013;BME280;67260;53.130;17.982;2023-09-19T06:38:46;100282.00;;;18.00;82.01
77013;BME280;67260;53.130;17.982;2023-09-19T06:41:13;100285.50;;;18.03;82.13
77013;BME280;67260;53.130;17.982;2023-09-19T06:43:41;100289.11;;;18.07;82.08
77013;BME280;67260;53.130;17.982;2023-09-19T06:46:07;100288.27;;;18.10;82.13
77013;BME280;67260;53.130;17.982;2023-09-19T06:48:34;100288.69;;;18.11;81.85
77013;BME280;67260;53.130;17.982;2023-09-19T06:51:01;100289.65;;;18.11;81.85
77013;BME280;67260;53.130;17.982;2023-09-19T06:53:32;100290.31;;;18.13;81.91
77013;BME280;67260;53.130;17.982;2023-09-19T06:55:59;100289.88;;;18.19;81.81
77013;BME280;67260;53.130;17.982;2023-09-19T06:58:25;100295.65;;;18.25;81.63
77013;BME280;67260;53.130;17.982;2023-09-19T07:00:52;100297.25;;;18.24;81.62
77013;BME280;67260;53.130;17.982;2023-09-19T07:03:19;100299.94;;;18.23;81.41
77013;BME280;67260;53.130;17.982;2023-09-19T07:05:48;100299.73;;;18.26;81.28
77013;BME280;67260;53.130;17.982;2023-09-19T07:08:15;100295.21;;;18.26;81.19
77013;BME280;67260;53.130;17.982;2023-09-19T07:10:44;100302.37;;;18.29;81.06
77013;BME280;67260;53.130;17.982;2023-09-19T07:13:38;100301.67;;;18.38;80.90
77013;BME280;67260;53.130;17.982;2023-09-19T07:16:19;100308.83;;;18.47;80.62
77013;BME280;67260;53.130;17.982;2023-09-19T07:19:01;100309.55;;;18.58;80.65
77013;BME280;67260;53.130;17.982;2023-09-19T07:21:30;100313.73;;;18.72;80.31
77013;BME280;67260;53.130;17.982;2023-09-19T07:23:59;100309.84;;;18.87;80.22
77013;BME280;67260;53.130;17.982;2023-09-19T07:26:30;100306.12;;;18.93;79.79
77013;BME280;67260;53.130;17.982;2023-09-19T07:28:57;100318.52;;;18.89;79.81
77013;BME280;67260;53.130;17.982;2023-09-19T07:31:24;100317.59;;;18.89;79.85
77013;BME280;67260;53.130;17.982;2023-09-19T07:33:54;100314.95;;;18.97;79.69
77013;BME280;67260;53.130;17.982;2023-09-19T07:36:21;100321.01;;;19.04;79.40
77013;BME280;67260;53.130;17.982;2023-09-19T07:38:48;100322.77;;;19.14;79.32
77013;BME280;67260;53.130;17.982;2023-09-19T07:41:15;100327.26;;;19.28;79.06
77013;BME280;67260;53.130;17.982;2023-09-19T07:43:49;100335.20;;;19.36;78.24
77013;BME280;67260;53.130;17.982;2023-09-19T07:46:16;100334.67;;;19.38;78.48
77013;BME280;67260;53.130;17.982;2023-09-19T07:48:43;100336.77;;;19.36;78.37
77013;BME280;67260;53.130;17.982;2023-09-19T07:51:15;100341.63;;;19.31;78.44
77013;BME280;67260;53.130;17.982;2023-09-19T07:53:42;100347.69;;;19.21;78.59
77013;BME280;67260;53.130;17.982;2023-09-19T07:56:09;100347.34;;;19.09;78.52
77013;BME280;67260;53.130;17.982;2023-09-19T07:58:39;100348.98;;;18.96;78.74
77013;BME280;67260;53.130;17.982;2023-09-19T08:01:12;100354.23;;;18.91;79.01
77013;BME280;67260;53.130;17.982;2023-09-19T08:03:42;100352.41;;;18.94;79.19
77013;BME280;67260;53.130;17.982;2023-09-19T08:06:10;100354.30;;;18.98;78.51
77013;BME280;67260;53.130;17.982;2023-09-19T08:08:42;100351.48;;;19.02;78.37
77013;BME280;67260;53.130;17.982;2023-09-19T08:11:09;100351.11;;;19.07;78.45
77013;BME280;67260;53.130;17.982;2023-09-19T08:13:39;100348.68;;;19.09;78.19
77013;BME280;67260;53.130;17.982;2023-09-19T08:16:15;100353.05;;;19.30;77.85
77013;BME280;67260;53.130;17.982;2023-09-19T08:18:42;100356.05;;;19.66;77.20
77013;BME280;67260;53.130;17.982;2023-09-19T08:21:11;100359.26;;;19.78;77.32
77013;BME280;67260;53.130;17.982;2023-09-19T08:23:38;100362.48;;;19.81;76.57
77013;BME280;67260;53.130;17.982;2023-09-19T08:26:05;100363.34;;;19.74;76.52
77013;BME280;67260;53.130;17.982;2023-09-19T08:28:35;100361.55;;;19.63;76.61
77013;BME280;67260;53.130;17.982;2023-09-19T08:31:03;100358.33;;;19.61;76.55
77013;BME280;67260;53.130;17.982;2023-09-19T08:33:33;100365.23;;;19.62;76.45
77013;BME280;67260;53.130;17.982;2023-09-19T08:36:00;100375.40;;;19.66;76.57
77013;BME280;67260;53.130;17.982;2023-09-19T08:38:27;100377.31;;;19.80;76.28
77013;BME280;67260;53.130;17.982;2023-09-19T08:40:59;100386.03;;;20.07;75.57
77013;BME280;67260;53.130;17.982;2023-09-19T08:43:27;100388.70;;;20.45;75.09
77013;BME280;67260;53.130;17.982;2023-09-19T08:45:58;100393.98;;;20.48;74.69
77013;BME280;67260;53.130;17.982;2023-09-19T08:48:31;100398.34;;;20.57;74.47
77013;BME280;67260;53.130;17.982;2023-09-19T08:51:10;100398.52;;;20.92;73.20
77013;BME280;67260;53.130;17.982;2023-09-19T08:53:43;100390.38;;;22.74;69.11
77013;BME280;67260;53.130;17.982;2023-09-19T08:56:17;100389.69;;;23.87;66.41
77013;BME280;67260;53.130;17.982;2023-09-19T08:59:23;100392.80;;;24.21;65.27
77013;BME280;67260;53.130;17.982;2023-09-19T09:01:43;100396.02;;;23.96;65.85
77013;BME280;67260;53.130;17.982;2023-09-19T09:04:11;100398.83;;;24.34;64.61
77013;BME280;67260;53.130;17.982;2023-09-19T09:06:40;100390.77;;;25.05;60.55
77013;BME280;67260;53.130;17.982;2023-09-19T09:09:23;100388.98;;;25.95;61.28
77013;BME280;67260;53.130;17.982;2023-09-19T09:12:05;100389.63;;;26.26;59.33
77013;BME280;67260;53.130;17.982;2023-09-19T09:15:19;100385.45;;;26.33;59.76
77013;BME280;67260;53.130;17.982;2023-09-19T09:18:02;100382.54;;;27.86;56.49
77013;BME280;67260;53.130;17.982;2023-09-19T09:20:37;100383.97;;;27.75;56.45
77013;BME280;67260;53.130;17.982;2023-09-19T09:23:05;100388.08;;;27.08;55.80
77013;BME280;67260;53.130;17.982;2023-09-19T09:25:58;100388.46;;;26.40;56.75
77013;BME280;67260;53.130;17.982;2023-09-19T09:29:12;100391.45;;;25.86;54.91
77013;BME280;67260;53.130;17.982;2023-09-19T09:31:52;100393.04;;;25.50;55.25
77013;BME280;67260;53.130;17.982;2023-09-19T09:34:22;100396.42;;;25.15;55.30
77013;BME280;67260;53.130;17.982;2023-09-19T09:36:58;100395.47;;;24.59;55.98
77013;BME280;67260;53.130;17.982;2023-09-19T09:39:32;100399.04;;;24.11;57.25
77013;BME280;67260;53.130;17.982;2023-09-19T09:48:03;100407.95;;;23.98;57.77
77013;BME280;67260;53.130;17.982;2023-09-19T09:51:12;100408.38;;;24.76;57.09
77013;BME280;67260;53.130;17.982;2023-09-19T09:54:41;100416.70;;;25.32;53.76
77013;BME280;67260;53.130;17.982;2023-09-19T10:01:34;100405.02;;;25.87;52.63
77013;BME280;67260;53.130;17.982;2023-09-19T10:04:29;100406.73;;;25.92;52.23
77013;BME280;67260;53.130;17.982;2023-09-19T10:07:30;100417.65;;;26.52;52.04
77013;BME280;67260;53.130;17.982;2023-09-19T10:10:44;100407.70;;;27.73;49.59
77013;BME280;67260;53.130;17.982;2023-09-19T10:13:38;100408.21;;;27.82;49.60
77013;BME280;67260;53.130;17.982;2023-09-19T10:16:13;100415.74;;;27.27;50.57
77013;BME280;67260;53.130;17.982;2023-09-19T10:18:55;100425.56;;;26.64;50.80
77013;BME280;67260;53.130;17.982;2023-09-19T10:24:25;100432.86;;;25.46;51.79
77013;BME280;67260;53.130;17.982;2023-09-19T10:26:59;100439.05;;;25.20;51.70
77013;BME280;67260;53.130;17.982;2023-09-19T10:29:28;100443.16;;;24.92;50.88
77013;BME280;67260;53.130;17.982;2023-09-19T10:31:58;100446.63;;;24.82;51.21
77013;BME280;67260;53.130;17.982;2023-09-19T10:34:25;100451.39;;;24.87;51.03
77013;BME280;67260;53.130;17.982;2023-09-19T10:36:53;100452.77;;;24.95;50.99
77013;BME280;67260;53.130;17.982;2023-09-19T10:39:23;100455.55;;;25.23;50.63
77013;BME280;67260;53.130;17.982;2023-09-19T10:41:51;100461.58;;;25.36;48.81
77013;BME280;67260;53.130;17.982;2023-09-19T10:44:32;100458.91;;;25.13;49.67
77013;BME280;67260;53.130;17.982;2023-09-19T10:46:58;100451.57;;;25.21;49.27
77013;BME280;67260;53.130;17.982;2023-09-19T10:49:26;100452.63;;;25.44;49.64
77013;BME280;67260;53.130;17.982;2023-09-19T10:51:54;100451.91;;;25.71;49.60
77013;BME280;67260;53.130;17.982;2023-09-19T10:54:30;100450.74;;;25.85;48.99
77013;BME280;67260;53.130;17.982;2023-09-19T10:56:59;100449.67;;;26.24;48.56
77013;BME280;67260;53.130;17.982;2023-09-19T10:59:27;100443.67;;;26.57;47.48
77013;BME280;67260;53.130;17.982;2023-09-19T11:02:18;100430.44;;;26.65;47.27
77013;BME280;67260;53.130;17.982;2023-09-19T11:04:46;100437.55;;;26.64;45.58
77013;BME280;67260;53.130;17.982;2023-09-19T11:07:20;100431.50;;;26.29;46.06
77013;BME280;67260;53.130;17.982;2023-09-19T11:09:55;100435.45;;;26.16;45.74
77013;BME280;67260;53.130;17.982;2023-09-19T11:26:45;100451.44;;;26.33;44.68
77013;BME280;67260;53.130;17.982;2023-09-19T11:29:46;100454.02;;;26.38;41.82
77013;BME280;67260;53.130;17.982;2023-09-19T11:36:02;100442.77;;;26.35;42.85
77013;BME280;67260;53.130;17.982;2023-09-19T11:46:27;100464.27;;;26.18;41.75
77013;BME280;67260;53.130;17.982;2023-09-19T11:49:05;100461.70;;;26.05;41.90
77013;BME280;67260;53.130;17.982;2023-09-19T11:51:42;100468.16;;;25.68;41.29
77013;BME280;67260;53.130;17.982;2023-09-19T11:54:14;100470.86;;;25.32;42.31
77013;BME280;67260;53.130;17.982;2023-09-19T11:56:52;100464.38;;;25.18;43.02
77013;BME280;67260;53.130;17.982;2023-09-19T11:59:27;100465.21;;;25.34;43.17
77013;BME280;67260;53.130;17.982;2023-09-19T12:02:11;100468.22;;;25.51;42.36
77013;BME280;67260;53.130;17.982;2023-09-19T12:04:45;100478.10;;;25.65;41.32
77013;BME280;67260;53.130;17.982;2023-09-19T12:07:21;100485.78;;;25.57;39.48
77013;BME280;67260;53.130;17.982;2023-09-19T12:10:22;100494.76;;;25.47;40.51
77013;BME280;67260;53.130;17.982;2023-09-19T12:13:04;100496.23;;;25.36;40.03
77013;BME280;67260;53.130;17.982;2023-09-19T12:15:37;100501.88;;;25.19;40.74
77013;BME280;67260;53.130;17.982;2023-09-19T12:18:05;100497.13;;;24.95;41.45
77013;BME280;67260;53.130;17.982;2023-09-19T12:20:56;100501.52;;;24.79;41.70
77013;BME280;67260;53.130;17.982;2023-09-19T12:24:18;100501.22;;;24.46;41.74
77013;BME280;67260;53.130;17.982;2023-09-19T12:27:11;100504.35;;;24.25;41.96
77013;BME280;67260;53.130;17.982;2023-09-19T12:30:01;100503.55;;;23.84;41.75
77013;BME280;67260;53.130;17.982;2023-09-19T12:33:25;100507.35;;;23.60;42.52
77013;BME280;67260;53.130;17.982;2023-09-19T12:36:19;100510.96;;;23.47;42.48
77013;BME280;67260;53.130;17.982;2023-09-19T12:39:31;100515.44;;;23.26;42.01
77013;BME280;67260;53.130;17.982;2023-09-19T12:42:27;100525.58;;;23.01;43.95
77013;BME280;67260;53.130;17.982;2023-09-19T12:45:53;100530.52;;;22.83;44.69
77013;BME280;67260;53.130;17.982;2023-09-19T12:49:18;100530.16;;;22.64;43.98
77013;BME280;67260;53.130;17.982;2023-09-19T12:51:46;100533.07;;;22.54;43.35
77013;BME280;67260;53.130;17.982;2023-09-19T12:54:23;100531.64;;;22.46;44.29
77013;BME280;67260;53.130;17.982;2023-09-19T12:57:27;100533.50;;;22.45;44.82
77013;BME280;67260;53.130;17.982;2023-09-19T13:00:07;100534.48;;;22.43;45.15
77013;BME280;67260;53.130;17.982;2023-09-19T13:02:37;100533.44;;;22.41;45.09
77013;BME280;67260;53.130;17.982;2023-09-19T13:06:03;100536.40;;;22.47;45.21
77013;BME280;67260;53.130;17.982;2023-09-19T13:09:17;100530.49;;;22.34;44.22
77013;BME280;67260;53.130;17.982;2023-09-19T13:11:53;100529.92;;;22.33;44.67
77013;BME280;67260;53.130;17.982;2023-09-19T13:14:26;100534.55;;;22.39;44.39
77013;BME280;67260;53.130;17.982;2023-09-19T13:17:42;100533.67;;;22.44;44.57
77013;BME280;67260;53.130;17.982;2023-09-19T13:20:26;100530.61;;;22.59;44.37
77013;BME280;67260;53.130;17.982;2023-09-19T13:22:59;100535.98;;;22.67;44.07
77013;BME280;67260;53.130;17.982;2023-09-19T13:25:27;100538.61;;;22.68;43.87
77013;BME280;67260;53.130;17.982;2023-09-19T13:27:58;100535.52;;;22.61;43.20
77013;BME280;67260;53.130;17.982;2023-09-19T13:30:39;100535.50;;;22.44;43.00
77013;BME280;67260;53.130;17.982;2023-09-19T13:33:18;100541.33;;;22.29;44.08
77013;BME280;67260;53.130;17.982;2023-09-19T13:35:48;100539.46;;;22.27;44.07
77013;BME280;67260;53.130;17.982;2023-09-19T13:38:23;100538.52;;;22.24;43.61
77013;BME280;67260;53.130;17.982;2023-09-19T13:42:08;100538.65;;;22.23;43.54
77013;BME280;67260;53.130;17.982;2023-09-19T13:44:38;100538.75;;;22.13;42.95
77013;BME280;67260;53.130;17.982;2023-09-19T13:47:05;100532.17;;;22.06;43.22
77013;BME280;67260;53.130;17.982;2023-09-19T13:49:56;100532.70;;;22.03;43.21
77013;BME280;67260;53.130;17.982;2023-09-19T13:52:55;100539.34;;;21.96;43.23
77013;BME280;67260;53.130;17.982;2023-09-19T13:56:15;100547.97;;;21.93;43.33
77013;BME280;67260;53.130;17.982;2023-09-19T13:58:42;100547.14;;;21.84;43.28
77013;BME280;67260;53.130;17.982;2023-09-19T14:01:09;100549.30;;;21.77;43.53